CheckWX is a tool to help pilots better visualize weather data.  It is not intended as a substitute for an official pre-flight weather briefing.

00:29:33 UTC

KUGN METAR
Waukegan National Airport
Chicago/Waukegan, Illinois, USA
Current

35 mins ago

KUGN 052355Z 18006KT 10SM OVC110 06/M02 A2993 RMK AO2 SLP144 T00561017 10067 20033 58002
Observed
Dec-5 @ 23:55 UTC
Wind
  • 180° at 6 KTS
Visibility
10 SM
Flight Rules
VFR
Cloud Levels
  • Overcast at 11,000' AGL
Temperature
C / 43°F
Dewpoint
-2°C / 28°F
Humidity
57%
Altimeter
29.93" Hg
Pressure
1013.52 hPa
Previous

2 hours ago

KUGN 052255Z 18004KT 10SM CLR 05/M02 A2994 RMK AO2 SLP147 T00501022
Observed
Dec-5 @ 22:55 UTC
Wind
  • 180° at 4 KTS
Visibility
10 SM
Flight Rules
VFR
Cloud Levels
  • Clear skies
Temperature
C / 41°F
Dewpoint
-2°C / 28°F
Humidity
61%
Altimeter
29.94" Hg
Pressure
1013.92 hPa
Previous

3 hours ago

KUGN 052155Z 21005KT 10SM FEW110 04/M03 A2994 RMK AO2 SLP149 T00441028
Observed
Dec-5 @ 21:55 UTC
Wind
  • 210° at 5 KTS
Visibility
10 SM
Flight Rules
VFR
Cloud Levels
  • Few at 11,000' AGL
Temperature
C / 39°F
Dewpoint
-3°C / 27°F
Humidity
61%
Altimeter
29.94" Hg
Pressure
1013.92 hPa